Time;durP1;ratioP1;P1;durP2;ratioP2;P2;SDS_P1;SDS_P2;PMS_P1;PMS_P2;Temp;Humidity;BMP_temperature;BMP_pressure;BME280_temperature;BME280_humidity;BME280_pressure;Samples;Min_cycle;Max_cycle;Signal;HPM_P1;HPM_P2
2023/02/16 00:03:56;;;;;;;419.17;44.78;;;;;;;1.08;67.75;101002.09;10423256;28;20509;-62
2023/02/16 00:08:58;;;;;;;651.78;52.92;;;;;;;1.11;68.07;101005.53;10424865;28;20051;-62
2023/02/16 00:14:01;;;;;;;467.95;41.88;;;;;;;0.90;68.16;101008.19;10424065;28;20053;-62
2023/02/16 00:19:22;;;;;;;588.50;38.60;;;;;;;0.86;68.79;101021.94;10427745;28;20053;-62
2023/02/16 00:24:25;;;;;;;384.05;44.55;;;;;;;0.81;68.75;101018.50;10430991;28;20049;-62
2023/02/16 00:29:33;;;;;;;638.22;45.40;;;;;;;0.92;68.63;101014.19;10423015;28;20049;-62
2023/02/16 00:34:42;;;;;;;539.20;39.90;;;;;;;0.93;68.53;101008.16;10425408;28;20405;-62
2023/02/16 00:39:44;;;;;;;681.70;57.00;;;;;;;1.01;68.24;101003.88;10424795;28;20041;-62
2023/02/16 00:44:48;;;;;;;186.52;37.13;;;;;;;1.13;68.43;100996.09;10423637;28;20155;-62
2023/02/16 00:49:52;;;;;;;385.17;40.90;;;;;;;1.14;68.06;100999.50;10426310;28;20115;-62
2023/02/16 00:54:54;;;;;;;157.55;31.80;;;;;;;1.33;68.36;100988.25;10422007;28;20136;-62
2023/02/16 01:00:01;;;;;;;526.63;48.17;;;;;;;1.52;67.97;100983.84;10425745;28;20148;-62
2023/02/16 01:05:03;;;;;;;249.93;34.38;;;;;;;1.65;67.98;100991.47;10422400;28;20068;-62
2023/02/16 01:15:25;;;;;;;499.75;43.92;;;;;;;1.31;67.58;100996.00;10420504;28;20053;-62
2023/02/16 01:20:27;;;;;;;417.42;40.53;;;;;;;1.21;67.76;100989.19;10421752;28;20408;-62
2023/02/16 01:25:29;;;;;;;404.25;40.95;;;;;;;1.05;68.02;100995.25;10422947;28;20613;-62
2023/02/16 01:30:31;;;;;;;602.72;51.53;;;;;;;0.93;68.23;101003.00;10423007;28;20408;-62
2023/02/16 01:35:33;;;;;;;503.02;43.25;;;;;;;1.05;68.17;101000.41;10423432;28;20516;-62
2023/02/16 01:40:41;;;;;;;492.40;45.47;;;;;;;1.01;67.96;100991.00;10423914;28;20071;-62
2023/02/16 01:45:50;;;;;;;417.20;39.47;;;;;;;1.13;68.24;100990.94;10420706;28;20045;-62
2023/02/16 01:51:02;;;;;;;361.05;37.47;;;;;;;1.09;68.36;100993.53;10422232;28;20045;-63
2023/02/16 01:56:14;;;;;;;519.80;45.88;;;;;;;1.16;68.05;100990.03;10450475;28;20045;-62
2023/02/16 02:01:38;;;;;;;151.63;30.80;;;;;;;1.09;68.00;100963.47;10417418;28;20052;-62
2023/02/16 02:06:40;;;;;;;489.27;44.90;;;;;;;1.11;68.05;100961.75;10418996;28;20076;-62
2023/02/16 02:11:50;;;;;;;381.30;32.20;;;;;;;0.87;67.66;100955.84;10421147;28;20041;-62
2023/02/16 02:16:59;;;;;;;455.85;38.83;;;;;;;0.70;68.00;100958.47;10419986;28;20127;-63
2023/02/16 02:28:08;;;;;;;413.80;40.38;;;;;;;0.90;67.92;100955.81;10418244;28;20052;-63
2023/02/16 02:33:39;;;;;;;211.40;30.13;;;;;;;0.72;67.80;100961.91;10422177;28;20090;-62
2023/02/16 02:39:08;;;;;;;157.27;28.20;;;;;;;0.57;68.57;100951.66;10422199;28;20052;-62
2023/02/16 02:44:14;;;;;;;338.50;37.55;;;;;;;0.73;68.30;100953.31;10417393;28;20082;-62
2023/02/16 02:49:15;;;;;;;187.57;30.00;;;;;;;0.92;68.05;100942.09;10420294;28;20053;-62
2023/02/16 03:05:10;;;;;;;157.18;29.73;;;;;;;0.85;68.35;100932.66;10426103;28;21152;-62
2023/02/16 03:15:45;;;;;;;178.40;29.15;;;;;;;0.95;68.29;100934.31;10423750;28;20067;-62
2023/02/16 03:31:32;;;;;;;407.50;38.22;;;;;;;0.64;67.68;100945.63;10424293;28;20493;-62
2023/02/16 03:36:37;;;;;;;257.38;33.33;;;;;;;0.70;67.92;100943.03;10424613;28;20045;-62
2023/02/16 03:41:42;;;;;;;152.30;26.80;;;;;;;0.72;67.92;100943.88;10423338;28;20049;-62
2023/02/16 03:46:44;;;;;;;355.85;38.10;;;;;;;0.77;67.75;100938.72;10424722;28;20045;-62
2023/02/16 03:51:46;;;;;;;474.90;41.95;;;;;;;0.67;67.53;100937.88;10425190;28;20057;-62
2023/02/16 03:56:48;;;;;;;368.67;31.77;;;;;;;0.48;68.00;100938.81;10426302;28;20041;-62
2023/02/16 04:01:49;;;;;;;257.42;28.70;;;;;;;0.30;68.30;100941.44;10424215;28;20064;-62
2023/02/16 04:06:51;;;;;;;234.77;30.88;;;;;;;0.39;68.19;100931.13;10451950;28;20091;-62
2023/02/16 04:17:13;;;;;;;206.57;25.63;;;;;;;0.30;67.87;100934.56;10414596;28;20053;-62
2023/02/16 04:22:14;;;;;;;172.25;26.58;;;;;;;0.37;68.25;100940.56;10423278;28;20072;-62
2023/02/16 04:27:16;;;;;;;324.95;30.52;;;;;;;0.32;67.67;100942.31;10419659;28;20053;-62
2023/02/16 04:32:18;;;;;;;368.90;33.03;;;;;;;0.40;67.97;100956.00;10418768;28;20049;-62
2023/02/16 04:37:20;;;;;;;302.08;27.67;;;;;;;0.33;67.82;100941.44;10418802;28;20049;-62
2023/02/16 04:42:21;;;;;;;204.35;26.05;;;;;;;0.35;67.95;100945.72;10418820;28;20052;-62
2023/02/16 04:47:25;;;;;;;347.35;31.17;;;;;;;0.48;67.71;100942.22;10424075;28;20045;-62
2023/02/16 04:52:27;;;;;;;234.32;27.33;;;;;;;0.26;67.61;100950.88;10424213;28;20059;-62
2023/02/16 04:57:28;;;;;;;167.43;22.92;;;;;;;0.27;67.68;100938.88;10428169;28;20535;-62
2023/02/16 05:02:31;;;;;;;427.58;33.30;;;;;;;0.23;67.50;100934.59;10422642;28;20056;-62
2023/02/16 05:07:33;;;;;;;146.25;23.42;;;;;;;0.26;67.70;100939.75;10423759;28;20044;-62
2023/02/16 05:17:55;;;;;;;252.85;26.33;;;;;;;0.42;67.72;100941.41;10423495;28;20044;-62
2023/02/16 05:22:56;;;;;;;301.45;29.80;;;;;;;0.37;67.68;100941.44;10421792;28;20060;-62
2023/02/16 05:27:58;;;;;;;442.83;33.60;;;;;;;0.15;67.83;100954.31;10435814;28;20056;-62
2023/02/16 05:33:00;;;;;;;487.48;38.13;;;;;;;0.09;68.05;100942.34;10424203;28;20051;-62
2023/02/16 05:38:02;;;;;;;460.50;29.33;;;;;;;0.28;67.80;100954.28;10430711;28;20045;-62
2023/02/16 05:43:03;;;;;;;388.30;31.55;;;;;;;0.04;67.93;100959.47;10419078;28;20413;-62
2023/02/16 05:48:05;;;;;;;347.33;32.05;;;;;;;0.11;68.17;100956.06;10421088;28;20490;-62
2023/02/16 05:53:06;;;;;;;405.73;38.08;;;;;;;0.05;67.93;100968.91;10420186;28;20697;-62
2023/02/16 05:58:08;;;;;;;393.23;27.67;;;;;;;0.08;67.83;100960.31;10423088;28;20061;-62
2023/02/16 06:03:10;;;;;;;482.80;33.20;;;;;;;0.10;68.11;100971.47;10423607;28;20061;-62
2023/02/16 06:08:11;;;;;;;332.27;27.95;;;;;;;-0.04;68.06;100978.31;10418681;28;20436;-62
2023/02/16 06:13:13;;;;;;;663.08;48.65;;;;;;;0.05;68.11;100976.63;10420228;28;20063;-62
2023/02/16 06:18:14;;;;;;;319.65;29.85;;;;;;;0.11;68.26;100973.19;10421658;28;20045;-62
2023/02/16 06:23:16;;;;;;;544.33;39.08;;;;;;;0.03;67.99;100970.63;10420921;28;20536;-62
2023/02/16 06:28:18;;;;;;;281.15;26.60;;;;;;;0.14;68.20;100973.16;10426530;28;20053;-62
2023/02/16 06:33:19;;;;;;;462.60;34.28;;;;;;;0.15;68.00;100969.75;10423687;28;20045;-62
2023/02/16 06:38:21;;;;;;;504.00;33.88;;;;;;;0.26;67.67;100965.47;10421390;28;20446;-62
2023/02/16 06:43:23;;;;;;;300.15;26.38;;;;;;;-0.02;68.21;100974.91;10417628;28;20053;-62
2023/02/16 06:48:24;;;;;;;541.25;33.85;;;;;;;-0.01;68.09;100980.91;10419668;28;20205;-62
2023/02/16 06:53:26;;;;;;;319.73;29.17;;;;;;;-0.05;68.35;100974.06;10417523;28;20041;-62
2023/02/16 06:58:28;;;;;;;505.98;34.35;;;;;;;0.10;68.39;100974.03;10416042;28;20057;-62
2023/02/16 07:03:29;;;;;;;406.65;33.50;;;;;;;0.33;68.13;100977.44;10414143;28;20056;-62
2023/02/16 07:08:32;;;;;;;355.58;28.77;;;;;;;0.27;67.69;100974.88;10411990;28;20049;-62
2023/02/16 07:13:36;;;;;;;344.58;28.63;;;;;;;0.17;67.68;100980.91;10414343;28;20509;-63
2023/02/16 07:18:38;;;;;;;401.13;35.40;;;;;;;0.22;67.42;100977.47;10420006;28;20048;-62
2023/02/16 07:23:39;;;;;;;452.17;36.67;;;;;;;0.27;67.22;100978.31;10424912;28;20049;-62
2023/02/16 07:28:41;;;;;;;255.55;25.65;;;;;;;0.21;67.42;100992.91;10425286;28;20049;-62
2023/02/16 07:33:43;;;;;;;348.15;29.88;;;;;;;0.31;67.49;100992.03;10420152;28;20053;-62
2023/02/16 07:38:44;;;;;;;498.50;34.78;;;;;;;0.09;67.02;100988.63;10419425;28;20490;-63
2023/02/16 07:43:46;;;;;;;177.63;22.98;;;;;;;0.22;67.78;100985.19;10425887;28;20057;-62
2023/02/16 07:48:49;;;;;;;332.13;24.30;;;;;;;0.53;66.74;100985.97;10426126;28;20045;-62
2023/02/16 07:53:52;;;;;;;351.70;33.30;;;;;;;0.46;66.90;100981.72;10425980;28;20055;-62
2023/02/16 07:58:55;;;;;;;81.00;22.15;;;;;;;0.61;66.69;100991.97;10424341;28;20047;-63
2023/02/16 08:03:57;;;;;;;134.95;21.95;;;;;;;0.75;66.33;101002.25;10424144;28;20809;-62
2023/02/16 08:08:58;;;;;;;93.38;21.52;;;;;;;0.82;66.26;100999.63;10418440;28;20053;-63
2023/02/16 08:14:00;;;;;;;159.20;26.20;;;;;;;0.71;65.70;101001.38;10408554;28;20045;-62
2023/02/16 08:19:03;;;;;;;135.85;25.17;;;;;;;0.63;66.39;101002.28;10433636;28;20137;-63
2023/02/16 08:24:07;;;;;;;451.98;39.50;;;;;;;0.68;66.12;101010.84;10433305;28;20060;-62
2023/02/16 08:29:11;;;;;;;152.82;25.35;;;;;;;0.74;66.32;101027.13;10429802;28;20049;-63
2023/02/16 08:34:15;;;;;;;238.82;28.98;;;;;;;0.98;66.31;101027.03;10418484;28;20790;-63
2023/02/16 08:39:19;;;;;;;296.75;32.80;;;;;;;0.92;65.54;101027.06;10432101;28;20052;-62
2023/02/16 08:44:23;;;;;;;257.30;25.92;;;;;;;0.85;65.67;101025.34;10432665;28;20061;-62
2023/02/16 08:49:26;;;;;;;242.27;28.08;;;;;;;1.01;66.17;101019.31;10426046;28;20057;-63
2023/02/16 08:54:29;;;;;;;251.80;28.33;;;;;;;1.41;65.60;101021.69;10431075;28;20049;-63
2023/02/16 08:59:32;;;;;;;107.50;24.42;;;;;;;1.45;65.32;101023.41;10430552;28;20404;-65
2023/02/16 09:04:35;;;;;;;305.15;31.90;;;;;;;1.64;65.05;101013.00;10431285;28;20060;-62
2023/02/16 09:09:39;;;;;;;93.30;26.10;;;;;;;1.69;64.88;101018.09;10428504;28;20053;-63
2023/02/16 09:14:43;;;;;;;113.13;26.38;;;;;;;1.65;65.04;101016.41;10431149;28;20076;-62
2023/02/16 09:19:44;;;;;;;88.75;26.30;;;;;;;1.78;65.05;101013.75;10430937;28;20478;-62
2023/02/16 09:24:46;;;;;;;127.55;26.73;;;;;;;1.82;64.43;101004.25;10430117;28;20059;-62
2023/02/16 09:29:48;;;;;;;114.30;25.25;;;;;;;1.68;64.95;101001.78;10425619;28;20539;-62
2023/02/16 09:34:50;;;;;;;153.23;28.60;;;;;;;1.73;64.86;101005.16;10429809;28;20043;-62
2023/02/16 09:39:52;;;;;;;80.72;26.77;;;;;;;1.77;65.27;101003.41;10428687;28;20048;-62
2023/02/16 09:45:10;;;;;;;178.57;36.08;;;;;;;1.67;65.22;101009.50;10430211;28;20052;-62
2023/02/16 09:50:18;;;;;;;68.47;30.05;;;;;;;1.78;65.70;101003.44;10428404;28;20085;-63
2023/02/16 09:56:01;;;;;;;86.70;27.30;;;;;;;1.87;65.03;100998.19;10429422;28;20122;-63
2023/02/16 10:01:16;;;;;;;39.33;24.30;;;;;;;1.72;65.33;100994.88;10428084;28;20383;-63
2023/02/16 10:06:59;;;;;;;66.90;28.65;;;;;;;1.68;64.95;100991.47;10428543;28;20056;-63
2023/02/16 10:12:08;;;;;;;44.20;26.02;;;;;;;1.53;65.62;101001.88;10428760;28;20497;-62
2023/02/16 10:17:17;;;;;;;47.22;26.60;;;;;;;1.98;65.23;100993.81;10427621;28;20516;-62
2023/02/16 10:22:43;;;;;;;61.33;29.83;;;;;;;2.02;65.15;100981.75;10428512;28;20052;-62
2023/02/16 10:27:53;;;;;;;40.47;24.52;;;;;;;2.30;64.71;100988.34;10428774;28;20057;-62
2023/02/16 10:33:01;;;;;;;42.65;26.42;;;;;;;2.25;64.18;100974.66;10429369;28;20081;-62
2023/02/16 10:38:11;;;;;;;43.25;26.30;;;;;;;2.09;64.73;100973.91;10427589;28;20276;-62
2023/02/16 10:43:20;;;;;;;37.23;24.67;;;;;;;2.19;64.29;100979.88;10427527;28;20960;-62
2023/02/16 10:48:22;;;;;;;45.55;26.13;;;;;;;2.18;64.64;100975.56;10427016;28;20059;-62
2023/02/16 10:53:30;;;;;;;39.08;25.33;;;;;;;2.38;64.40;100972.81;10428794;28;20049;-62
2023/02/16 10:58:40;;;;;;;40.20;25.90;;;;;;;2.34;64.14;100974.56;10426801;28;20053;-62
2023/02/16 11:03:45;;;;;;;42.47;26.63;;;;;;;2.30;64.42;100966.88;10426727;28;20069;-62
2023/02/16 11:09:14;;;;;;;41.88;26.75;;;;;;;2.48;64.21;100962.34;10427929;28;20068;-62
2023/02/16 11:14:24;;;;;;;39.05;25.95;;;;;;;2.87;63.97;100964.50;10423462;28;20079;-62
2023/02/16 11:19:27;;;;;;;43.10;26.75;;;;;;;3.02;63.38;100972.06;10427734;28;20053;-62
2023/02/16 11:24:29;;;;;;;44.22;26.67;;;;;;;3.14;63.02;100962.44;10427520;28;20496;-62
2023/02/16 11:29:31;;;;;;;39.67;25.95;;;;;;;3.43;62.84;100952.56;10426194;28;20045;-62
2023/02/16 11:34:43;;;;;;;40.40;27.50;;;;;;;3.53;62.23;100943.78;10425870;28;20049;-62
2023/02/16 11:39:55;;;;;;;37.63;25.98;;;;;;;3.57;62.21;100930.78;10425519;28;20045;-63
2023/02/16 11:44:59;;;;;;;39.17;26.15;;;;;;;4.37;61.79;100926.84;10427257;28;20067;-62
2023/02/16 11:50:20;;;;;;;40.40;27.42;;;;;;;4.28;60.42;100929.63;10430565;28;20819;-62
2023/02/16 11:55:26;;;;;;;35.38;24.90;;;;;;;4.25;61.57;100923.63;10428604;28;20533;-62
2023/02/16 12:00:30;;;;;;;37.25;25.35;;;;;;;4.97;60.47;100916.13;10427916;28;20103;-63
2023/02/16 12:05:46;;;;;;;41.10;26.65;;;;;;;4.92;59.60;100913.66;10427876;28;20173;-62
2023/02/16 12:11:11;;;;;;;40.03;27.38;;;;;;;4.96;59.82;100906.66;10421015;28;20045;-62
2023/02/16 12:16:40;;;;;;;37.38;25.90;;;;;;;4.95;60.00;100889.41;10427482;28;20498;-63
2023/02/16 12:21:53;;;;;;;39.08;26.90;;;;;;;4.63;60.92;100898.72;10424893;28;20573;-63
2023/02/16 12:27:11;;;;;;;41.90;30.15;;;;;;;4.68;60.42;100890.81;10426855;28;20516;-63
2023/02/16 12:32:29;;;;;;;41.35;27.52;;;;;;;4.68;60.59;100890.81;10423421;28;20420;-63
2023/02/16 12:37:36;;;;;;;41.53;28.95;;;;;;;5.03;60.28;100869.34;10423339;28;20045;-63
2023/02/16 12:43:15;;;;;;;37.90;26.55;;;;;;;5.18;60.48;100856.03;10425376;28;21351;-63
2023/02/16 12:48:40;;;;;;;31.40;22.88;;;;;;;5.12;60.50;100845.81;10422995;28;20067;-62
2023/02/16 12:53:56;;;;;;;28.50;21.63;;;;;;;5.38;60.54;100833.06;10425124;28;20059;-62
2023/02/16 12:59:16;;;;;;;33.85;23.15;;;;;;;5.57;59.69;100824.78;10429707;28;20057;-63
2023/02/16 13:04:45;;;;;;;29.75;21.20;;;;;;;5.34;60.52;100813.28;10428124;28;21055;-62
2023/02/16 13:09:58;;;;;;;28.90;21.48;;;;;;;5.50;60.65;100809.44;10429976;28;20068;-62
2023/02/16 13:15:04;;;;;;;28.67;22.30;;;;;;;5.44;61.10;100801.78;10429769;28;20053;-63
2023/02/16 13:20:15;;;;;;;31.98;21.63;;;;;;;5.43;61.23;100798.34;10428379;28;20075;-62
2023/02/16 13:25:44;;;;;;;32.58;23.52;;;;;;;5.51;61.15;100785.19;10462483;28;20061;-62
2023/02/16 13:31:15;;;;;;;31.00;22.88;;;;;;;5.46;61.28;100780.13;10428481;28;20119;-62
2023/02/16 13:36:32;;;;;;;30.77;22.88;;;;;;;5.59;61.41;100783.25;10458809;28;20052;-62
2023/02/16 13:41:54;;;;;;;31.00;23.58;;;;;;;5.52;61.00;100784.28;10428793;28;20047;-62
2023/02/16 13:46:56;;;;;;;;;;;;;;;5.37;62.10;100789.88;10428637;28;20132;-62
2023/02/16 13:51:59;;;;;;;29.13;21.73;;;;;;;5.85;61.29;100782.56;10428584;28;19928;-62
2023/02/16 13:57:03;;;;;;;28.48;21.77;;;;;;;6.02;60.99;100777.78;10429132;28;20159;-62
2023/02/16 14:02:12;;;;;;;35.13;23.80;;;;;;;6.14;60.97;100754.88;10426181;28;20055;-62
2023/02/16 14:07:16;;;;;;;35.95;24.70;;;;;;;6.07;61.78;100753.38;10426952;28;20053;-62
2023/02/16 14:12:34;;;;;;;33.83;24.90;;;;;;;5.99;61.90;100757.94;10427564;28;20075;-62
2023/02/16 14:17:36;;;;;;;32.08;24.58;;;;;;;6.03;61.95;100754.34;10425920;28;21174;-63
2023/02/16 14:22:50;;;;;;;33.80;24.23;;;;;;;6.18;62.11;100747.88;10425282;28;20404;-62
2023/02/16 14:28:02;;;;;;;30.75;23.25;;;;;;;6.32;61.85;100737.97;10425987;28;20156;-62
2023/02/16 14:33:16;;;;;;;36.20;26.10;;;;;;;6.35;62.09;100740.44;10418406;28;20053;-63
2023/02/16 14:38:30;;;;;;;36.20;26.40;;;;;;;6.31;62.69;100747.50;10421394;28;20513;-62
2023/02/16 14:43:34;;;;;;;38.03;28.08;;;;;;;6.42;62.88;100749.78;10419058;28;20527;-62
2023/02/16 14:49:17;;;;;;;36.90;26.95;;;;;;;6.65;62.22;100736.09;10422860;28;20040;-63
2023/02/16 14:54:56;;;;;;;35.88;26.05;;;;;;;6.76;61.54;100737.44;10405195;28;20048;-63
2023/02/16 15:00:23;;;;;;;33.63;26.35;;;;;;;6.65;62.81;100739.56;10423702;28;20057;-63
2023/02/16 15:05:29;;;;;;;38.63;28.13;;;;;;;6.76;62.79;100728.78;10426794;28;20060;-62
2023/02/16 15:10:31;;;;;;;47.03;31.92;;;;;;;6.76;62.97;100734.00;10458796;28;20966;-62
2023/02/16 15:15:47;;;;;;;46.60;31.55;;;;;;;6.66;63.54;100737.78;10425824;28;20135;-62
2023/02/16 15:20:54;;;;;;;48.88;32.72;;;;;;;6.56;64.14;100732.03;10425090;28;20052;-62
2023/02/16 15:26:18;;;;;;;49.22;34.20;;;;;;;6.44;64.62;100724.59;10424788;28;20056;-62
2023/02/16 15:31:25;;;;;;;48.25;32.42;;;;;;;6.52;64.46;100711.38;10423278;28;20053;-62
2023/02/16 15:36:35;;;;;;;60.05;37.20;;;;;;;6.56;65.16;100689.59;10425694;28;20118;-62
2023/02/16 15:41:39;;;;;;;49.35;33.38;;;;;;;6.56;64.76;100684.38;10425901;28;20052;-62
2023/02/16 15:46:43;;;;;;;47.50;32.78;;;;;;;6.45;65.00;100678.69;10425338;28;20075;-62
2023/02/16 15:51:44;;;;;;;51.47;33.42;;;;;;;6.43;65.05;100665.72;10422694;28;20077;-62
2023/02/16 15:56:49;;;;;;;58.45;35.67;;;;;;;6.31;65.44;100658.31;10424491;28;20824;-63
2023/02/16 16:02:05;;;;;;;45.97;31.17;;;;;;;6.30;65.65;100646.25;10424724;28;20053;-62
2023/02/16 16:07:13;;;;;;;46.35;31.30;;;;;;;6.19;65.47;100658.66;10424311;28;20072;-62
2023/02/16 16:12:17;;;;;;;63.47;36.95;;;;;;;6.15;65.96;100662.25;10420972;28;20067;-62
2023/02/16 16:17:28;;;;;;;81.65;42.63;;;;;;;5.83;67.14;100664.94;10420561;28;20460;-62
2023/02/16 16:22:41;;;;;;;72.68;40.95;;;;;;;5.63;67.59;100677.63;10416706;28;20049;-62
2023/02/16 16:27:47;;;;;;;80.80;42.33;;;;;;;5.47;67.52;100666.84;10420612;28;20131;-62
2023/02/16 16:33:11;;;;;;;53.25;34.22;;;;;;;5.49;67.65;100680.63;10417052;28;20183;-62
2023/02/16 16:38:28;;;;;;;62.17;36.40;;;;;;;5.53;67.55;100671.84;10425301;28;20052;-62
2023/02/16 16:43:32;;;;;;;58.10;35.50;;;;;;;5.46;67.11;100686.72;10425730;28;20064;-63
2023/02/16 16:48:38;;;;;;;71.20;39.00;;;;;;;5.34;67.17;100675.81;10428752;28;20056;-62
2023/02/16 16:53:56;;;;;;;73.65;40.25;;;;;;;5.23;67.31;100675.25;10426575;28;20226;-63
2023/02/16 16:58:59;;;;;;;70.90;37.92;;;;;;;5.25;67.39;100679.50;10424970;28;20057;-62
2023/02/16 17:04:03;;;;;;;64.93;39.17;;;;;;;5.22;67.54;100681.34;10422202;28;20288;-62
2023/02/16 17:09:05;;;;;;;74.88;42.10;;;;;;;5.26;67.54;100690.75;10427776;28;20409;-62
2023/02/16 17:14:16;;;;;;;84.53;43.95;;;;;;;5.19;68.15;100696.97;10425217;28;20048;-63
2023/02/16 17:19:19;;;;;;;80.47;42.55;;;;;;;5.22;68.15;100696.91;10424259;28;20076;-62
2023/02/16 17:24:21;;;;;;;89.70;46.25;;;;;;;5.30;68.06;100693.22;10415588;28;20044;-63
2023/02/16 17:29:23;;;;;;;105.43;48.50;;;;;;;5.33;67.76;100692.28;10423695;28;20053;-62
2023/02/16 17:34:28;;;;;;;128.35;57.10;;;;;;;5.30;67.98;100685.44;10418434;28;20393;-62
2023/02/16 17:39:30;;;;;;;124.35;58.70;;;;;;;5.20;68.17;100686.56;10425736;28;20048;-63
2023/02/16 17:44:32;;;;;;;84.72;46.42;;;;;;;5.08;68.47;100688.63;10422585;28;20634;-63
2023/02/16 17:49:33;;;;;;;92.32;48.03;;;;;;;4.96;68.58;100691.53;10422839;28;20056;-63
2023/02/16 17:54:35;;;;;;;132.05;49.67;;;;;;;4.77;68.54;100685.06;10421804;28;20056;-63
2023/02/16 17:59:37;;;;;;;115.35;51.42;;;;;;;4.66;68.88;100686.19;10424751;28;20067;-63
2023/02/16 18:04:41;;;;;;;86.50;45.25;;;;;;;4.53;69.00;100673.56;10419639;28;20053;-63
2023/02/16 18:09:44;;;;;;;93.55;48.42;;;;;;;4.54;69.06;100690.78;10425071;28;20128;-63
2023/02/16 18:14:46;;;;;;;74.38;41.72;;;;;;;4.51;69.00;100676.19;10421426;28;20419;-63
2023/02/16 18:19:48;;;;;;;59.33;37.05;;;;;;;4.61;69.04;100677.69;10424044;28;20132;-63
2023/02/16 18:24:56;;;;;;;86.93;45.13;;;;;;;4.66;69.02;100680.13;10419687;28;20049;-63
2023/02/16 18:29:58;;;;;;;77.88;43.65;;;;;;;4.79;68.97;100672.94;10418807;28;20049;-63
2023/02/16 18:35:03;;;;;;;85.28;45.47;;;;;;;4.89;68.64;100677.00;10421921;28;20192;-63
2023/02/16 18:40:07;;;;;;;76.95;41.28;;;;;;;4.93;68.54;100683.81;10424798;28;20049;-64
2023/02/16 18:45:10;;;;;;;87.20;46.63;;;;;;;4.95;68.46;100687.22;10421312;28;20628;-63
2023/02/16 18:50:12;;;;;;;121.22;56.70;;;;;;;4.95;68.39;100685.47;10423652;28;20094;-63
2023/02/16 18:55:15;;;;;;;116.85;56.33;;;;;;;4.98;68.23;100687.16;10418443;28;20048;-63
2023/02/16 19:00:18;;;;;;;137.68;62.80;;;;;;;5.07;68.17;100679.13;10419851;28;20045;-63
2023/02/16 19:05:20;;;;;;;124.13;60.45;;;;;;;5.11;68.02;100678.16;10421574;28;20417;-63
2023/02/16 19:10:23;;;;;;;106.18;51.85;;;;;;;4.97;68.46;100675.06;10422651;28;20049;-63
2023/02/16 19:15:25;;;;;;;83.38;46.40;;;;;;;5.11;68.19;100678.16;10420958;28;20059;-63
2023/02/16 19:20:28;;;;;;;97.63;51.67;;;;;;;5.24;68.13;100693.38;10422618;28;20045;-63
2023/02/16 19:25:30;;;;;;;104.55;50.25;;;;;;;5.20;67.95;100690.91;10421536;28;20057;-63
2023/02/16 19:30:32;;;;;;;71.30;43.35;;;;;;;5.05;68.43;100694.72;10420514;28;20999;-64
2023/02/16 19:35:34;;;;;;;95.35;49.10;;;;;;;5.13;68.59;100686.75;10419634;28;20148;-63
2023/02/16 19:40:37;;;;;;;102.65;50.38;;;;;;;5.17;68.42;100690.97;10421611;28;20084;-64
2023/02/16 19:45:40;;;;;;;119.43;54.03;;;;;;;5.24;68.08;100685.59;10416237;28;20064;-63
2023/02/16 19:50:42;;;;;;;84.05;46.33;;;;;;;5.27;67.99;100675.13;10422147;28;20055;-63
2023/02/16 19:55:43;;;;;;;96.30;47.65;;;;;;;5.26;67.90;100670.00;10420612;28;20412;-63
2023/02/16 20:00:45;;;;;;;74.10;43.78;;;;;;;5.24;67.82;100661.41;10409465;28;20041;-63
2023/02/16 20:05:48;;;;;;;155.43;55.42;;;;;;;5.18;67.98;100656.38;10418908;28;20053;-63
2023/02/16 20:10:49;;;;;;;118.50;56.28;;;;;;;5.24;67.74;100656.22;10426158;28;20048;-63
2023/02/16 20:15:51;;;;;;;145.55;58.03;;;;;;;5.14;67.93;100644.38;10427601;28;20413;-63
2023/02/16 20:21:17;;;;;;;123.30;54.13;;;;;;;5.15;68.27;100638.28;10430245;28;20550;-63
2023/02/16 20:26:26;;;;;;;82.18;45.20;;;;;;;5.17;68.11;100647.75;10425822;28;20151;-63
2023/02/16 20:31:46;;;;;;;147.32;59.13;;;;;;;5.04;68.37;100640.34;10427505;28;20059;-63
2023/02/16 20:36:48;;;;;;;123.10;54.50;;;;;;;4.94;68.53;100638.88;10428253;28;20048;-63
2023/02/16 20:41:50;;;;;;;68.88;42.15;;;;;;;4.99;68.76;100640.44;10431128;28;20454;-63
2023/02/16 20:46:52;;;;;;;123.38;56.60;;;;;;;5.11;68.40;100634.09;10423575;28;20107;-63
2023/02/16 20:51:54;;;;;;;97.80;50.58;;;;;;;5.15;68.33;100640.88;10424491;28;20175;-63
2023/02/16 20:56:56;;;;;;;162.85;68.50;;;;;;;5.27;68.27;100633.63;10425946;28;21069;-63
2023/02/16 21:01:58;;;;;;;107.22;54.28;;;;;;;5.32;67.91;100626.59;10427384;28;20057;-63
2023/02/16 21:07:00;;;;;;;84.60;49.03;;;;;;;5.37;67.95;100619.53;10426788;28;20061;-63
2023/02/16 21:12:01;;;;;;;105.43;52.65;;;;;;;5.35;67.96;100613.53;10426341;28;20045;-63
2023/02/16 21:17:03;;;;;;;114.50;56.22;;;;;;;5.37;68.06;100614.34;10423109;28;20505;-64
2023/02/16 21:22:05;;;;;;;96.38;54.08;;;;;;;5.41;67.75;100607.34;10422040;28;20055;-63
2023/02/16 21:27:08;;;;;;;107.60;52.88;;;;;;;5.37;67.77;100603.97;10417469;28;20068;-63
2023/02/16 21:32:11;;;;;;;108.15;57.00;;;;;;;5.37;67.94;100603.13;10421016;28;20052;-63
2023/02/16 21:37:13;;;;;;;92.32;52.35;;;;;;;5.42;67.90;100609.03;10423469;28;20440;-63
2023/02/16 21:42:16;;;;;;;107.55;56.95;;;;;;;5.38;67.73;100599.63;10418566;28;20511;-63
2023/02/16 21:52:41;;;;;;;108.73;55.40;;;;;;;5.33;68.10;100609.31;10422574;28;20088;-63
2023/02/16 21:57:43;;;;;;;82.97;47.08;;;;;;;5.17;68.34;100606.25;10418729;28;20471;-63
2023/02/16 22:02:45;;;;;;;92.03;50.55;;;;;;;5.25;68.36;100616.41;10418295;28;20385;-63
2023/02/16 22:07:48;;;;;;;130.00;56.25;;;;;;;5.41;68.17;100599.56;10454967;28;20052;-63
2023/02/16 22:12:51;;;;;;;100.13;52.85;;;;;;;5.44;67.85;100607.25;10418054;28;20134;-63
2023/02/16 22:17:53;;;;;;;152.27;64.90;;;;;;;5.26;68.03;100613.78;10419017;28;20045;-63
2023/02/16 22:22:55;;;;;;;87.25;49.85;;;;;;;5.19;68.43;100620.03;10421988;28;20048;-63
2023/02/16 22:27:57;;;;;;;101.35;53.60;;;;;;;5.20;68.56;100615.69;10419754;28;20123;-63
2023/02/16 22:32:58;;;;;;;91.10;49.38;;;;;;;5.29;68.44;100618.88;10418177;28;20052;-63
2023/02/16 22:38:00;;;;;;;91.78;50.85;;;;;;;5.42;68.40;100625.44;10420489;28;20229;-63
2023/02/16 22:43:02;;;;;;;95.90;52.15;;;;;;;5.50;68.24;100609.66;10414441;28;20057;-63
2023/02/16 22:48:03;;;;;;;169.93;69.82;;;;;;;5.51;68.08;100611.38;10419673;28;20057;-63
2023/02/16 22:53:05;;;;;;;105.68;55.45;;;;;;;5.57;68.11;100595.63;10416116;28;20048;-62
2023/02/16 22:58:07;;;;;;;204.88;75.97;;;;;;;5.28;68.51;100593.88;10414262;28;20894;-63
2023/02/16 23:03:08;;;;;;;134.55;62.33;;;;;;;4.99;69.47;100591.19;10417057;28;20053;-63
2023/02/16 23:08:10;;;;;;;128.85;58.85;;;;;;;4.85;70.10;100582.94;10415943;28;20056;-63
2023/02/16 23:13:12;;;;;;;97.63;54.22;;;;;;;4.98;69.94;100589.50;10418752;28;20049;-62
2023/02/16 23:18:13;;;;;;;90.07;50.33;;;;;;;5.17;69.92;100595.03;10416806;28;20045;-63
2023/02/16 23:23:15;;;;;;;109.40;55.33;;;;;;;5.24;69.69;100596.56;10415392;28;20413;-63
2023/02/16 23:28:17;;;;;;;121.68;58.95;;;;;;;5.23;69.69;100581.88;10410291;28;20048;-63
2023/02/16 23:33:19;;;;;;;122.35;58.20;;;;;;;5.16;69.96;100576.06;10417283;28;20053;-62
2023/02/16 23:38:20;;;;;;;116.88;58.67;;;;;;;4.99;70.39;100570.47;10420046;28;20064;-62
2023/02/16 23:43:22;;;;;;;107.60;53.50;;;;;;;5.19;70.84;100568.16;10416871;28;20056;-62
2023/02/16 23:48:24;;;;;;;99.90;52.97;;;;;;;5.29;70.50;100559.25;10422356;28;20052;-63
2023/02/16 23:53:27;;;;;;;118.47;59.10;;;;;;;5.18;70.67;100566.47;10422229;28;20052;-63
2023/02/16 23:58:35;;;;;;;114.93;58.92;;;;;;;5.24;70.68;100573.25;10426336;28;20052;-63
